createdAt,value
2023-03-07T00:00:38.410Z,100020.58
2023-03-07T00:01:51.077Z,100018.81
2023-03-07T00:02:54.576Z,100019.78
2023-03-07T00:03:58.633Z,100019.48
2023-03-07T00:05:01.928Z,100015.11
2023-03-07T00:06:09.441Z,100015.04
2023-03-07T00:07:15.091Z,100015.13
2023-03-07T00:08:21.288Z,100012.52
2023-03-07T00:09:24.207Z,100013.20
2023-03-07T00:10:27.506Z,100011.84
2023-03-07T00:11:31.074Z,100011.34
2023-03-07T00:12:33.897Z,100009.73
2023-03-07T00:13:38.292Z,100006.80
2023-03-07T00:14:42.186Z,100005.37
2023-03-07T00:15:46.296Z,100005.75
2023-03-07T00:16:51.677Z,100001.42
2023-03-07T00:17:55.088Z,100003.60
2023-03-07T00:18:57.957Z,100002.87
2023-03-07T00:20:00.851Z,100002.93
2023-03-07T00:21:08.272Z,99997.72
2023-03-07T00:22:14.430Z,99999.02
2023-03-07T00:23:18.030Z,99996.71
2023-03-07T00:24:20.981Z,99995.84
2023-03-07T00:25:23.892Z,99992.34
2023-03-07T00:26:28.021Z,99992.03
2023-03-07T00:27:34.891Z,99992.54
2023-03-07T00:28:37.791Z,99990.24
2023-03-07T00:29:40.783Z,99989.95
2023-03-07T00:30:43.881Z,99989.96
2023-03-07T00:31:49.730Z,99990.84
2023-03-07T00:32:52.599Z,99990.86
2023-03-07T00:33:55.491Z,99991.23
2023-03-07T00:35:00.146Z,99992.73
2023-03-07T00:36:07.643Z,99989.28
2023-03-07T00:37:12.247Z,99989.43
2023-03-07T00:38:17.655Z,99987.95
2023-03-07T00:39:20.669Z,99986.73
2023-03-07T00:40:23.556Z,99986.55
2023-03-07T00:41:29.060Z,99987.13
2023-03-07T00:42:33.642Z,99986.05
2023-03-07T00:43:38.120Z,99980.66
2023-03-07T00:44:41.038Z,99985.36
2023-03-07T00:45:43.975Z,99981.48
2023-03-07T00:46:47.341Z,99982.08
2023-03-07T00:47:51.556Z,99977.44
2023-03-07T00:48:55.613Z,99975.89
2023-03-07T00:49:58.482Z,99973.85
2023-03-07T00:51:01.718Z,99970.11
2023-03-07T00:52:05.288Z,99970.81
2023-03-07T00:53:09.143Z,99970.41
2023-03-07T00:54:12.527Z,99970.91
2023-03-07T00:55:16.707Z,99970.05
2023-03-07T00:56:25.960Z,99966.87
2023-03-07T00:57:32.705Z,99967.36
2023-03-07T00:58:38.308Z,99962.11
2023-03-07T00:59:41.127Z,99960.95
2023-03-07T01:00:48.553Z,99961.96
2023-03-07T01:01:52.356Z,99964.36
2023-03-07T01:03:02.258Z,99958.80
2023-03-07T01:04:08.251Z,99957.66
2023-03-07T01:05:15.603Z,99955.73
2023-03-07T01:06:20.835Z,99959.61
2023-03-07T01:07:24.997Z,99955.26
2023-03-07T01:08:28.894Z,99955.27
2023-03-07T01:09:35.054Z,99950.55
2023-03-07T01:10:38.533Z,99947.42
2023-03-07T01:11:41.759Z,99947.42
2023-03-07T01:12:45.242Z,99941.31
2023-03-07T01:13:48.547Z,99941.86
2023-03-07T01:14:52.349Z,99941.63
2023-03-07T01:15:55.295Z,99941.17
2023-03-07T01:16:58.193Z,99935.15
2023-03-07T01:18:03.661Z,99931.44
2023-03-07T01:19:08.374Z,99929.52
2023-03-07T01:20:12.015Z,99929.59
2023-03-07T01:21:21.539Z,99925.89
2023-03-07T01:22:25.314Z,99925.09
2023-03-07T01:23:28.329Z,99925.00
2023-03-07T01:24:31.586Z,99919.06
2023-03-07T01:25:43.139Z,99918.65
2023-03-07T01:26:46.528Z,99916.61
2023-03-07T01:27:52.465Z,99919.16
2023-03-07T01:28:58.459Z,99914.07
2023-03-07T01:30:01.430Z,99912.88
2023-03-07T01:31:04.661Z,99911.12
2023-03-07T01:32:07.751Z,99910.22
2023-03-07T01:33:11.108Z,99910.67
2023-03-07T01:34:14.266Z,99908.19
2023-03-07T01:35:17.431Z,99909.00
2023-03-07T01:36:25.465Z,99908.55
2023-03-07T01:37:28.880Z,99906.20
2023-03-07T01:38:34.134Z,99904.70
2023-03-07T01:39:39.099Z,99901.08
2023-03-07T01:40:45.226Z,99904.58
2023-03-07T01:41:49.026Z,99898.60
2023-03-07T01:42:53.527Z,99898.83
2023-03-07T01:44:05.364Z,99896.23
2023-03-07T01:45:12.194Z,99899.82
2023-03-07T01:46:18.625Z,99898.36
2023-03-07T01:47:28.024Z,99894.02
2023-03-07T01:48:30.949Z,99891.11
2023-03-07T01:49:41.041Z,99892.06
2023-03-07T01:50:44.599Z,99892.92
2023-03-07T01:51:52.422Z,99891.23
2023-03-07T01:53:00.561Z,99891.80
2023-03-07T01:54:06.344Z,99889.57
2023-03-07T01:55:12.366Z,99889.23
2023-03-07T01:56:16.401Z,99886.95
2023-03-07T01:57:22.037Z,99885.25
2023-03-07T01:58:25.500Z,99883.27
2023-03-07T01:59:32.785Z,99881.23
2023-03-07T02:00:38.541Z,99879.66
2023-03-07T02:01:41.515Z,99877.55
2023-03-07T02:02:47.895Z,99880.94
2023-03-07T02:03:55.316Z,99877.16
2023-03-07T02:05:14.565Z,99875.75
2023-03-07T02:06:18.674Z,99873.73
2023-03-07T02:07:24.920Z,99872.98
2023-03-07T02:08:30.621Z,99872.96
2023-03-07T02:09:35.402Z,99874.56
2023-03-07T02:10:40.509Z,99872.78
2023-03-07T02:11:45.356Z,99873.10
2023-03-07T02:12:51.959Z,99869.10
2023-03-07T02:13:55.017Z,99869.98
2023-03-07T02:14:58.277Z,99870.05
2023-03-07T02:16:02.681Z,99869.39
2023-03-07T02:17:05.975Z,99869.12
2023-03-07T02:18:13.177Z,99867.17
2023-03-07T02:19:40.603Z,99867.64
2023-03-07T02:21:01.726Z,99865.73
2023-03-07T02:22:12.396Z,99861.30
2023-03-07T02:23:24.049Z,99863.34
2023-03-07T02:24:37.937Z,99864.66
2023-03-07T02:26:02.499Z,99861.30
2023-03-07T02:27:06.218Z,99860.75
2023-03-07T02:28:13.278Z,99861.45
2023-03-07T02:29:17.131Z,99861.33
2023-03-07T02:30:21.805Z,99860.42
2023-03-07T02:31:42.599Z,99860.53
2023-03-07T02:32:45.805Z,99857.52
2023-03-07T02:33:49.913Z,99856.66
2023-03-07T02:34:53.198Z,99859.10
2023-03-07T02:36:03.036Z,99857.38
2023-03-07T02:37:11.289Z,99855.62
2023-03-07T02:38:14.668Z,99858.98
2023-03-07T02:39:21.572Z,99855.49
2023-03-07T02:40:29.580Z,99855.38
2023-03-07T02:41:34.231Z,99855.64
2023-03-07T02:42:42.763Z,99856.08
2023-03-07T02:43:48.264Z,99855.56
2023-03-07T02:45:02.028Z,99857.90
2023-03-07T02:46:07.171Z,99853.26
2023-03-07T02:47:10.144Z,99856.81
2023-03-07T02:48:14.030Z,99853.79
2023-03-07T02:49:18.417Z,99853.92
2023-03-07T02:50:21.515Z,99854.55
2023-03-07T02:51:27.100Z,99855.07
2023-03-07T02:52:30.151Z,99853.29
2023-03-07T02:53:33.459Z,99851.88
2023-03-07T02:54:36.637Z,99848.87
2023-03-07T02:55:39.453Z,99850.54
2023-03-07T02:56:42.546Z,99844.89
2023-03-07T02:57:45.468Z,99845.98
2023-03-07T02:58:48.337Z,99844.35
2023-03-07T02:59:51.506Z,99840.05
2023-03-07T03:00:54.579Z,99844.41
2023-03-07T03:01:58.369Z,99838.76
2023-03-07T03:03:01.295Z,99834.79
2023-03-07T03:04:04.342Z,99835.61
2023-03-07T03:05:10.284Z,99834.86
2023-03-07T03:06:13.962Z,99838.29
2023-03-07T03:07:16.913Z,99834.29
2023-03-07T03:08:19.876Z,99833.84
2023-03-07T03:09:22.837Z,99833.74
2023-03-07T03:10:25.937Z,99832.07
2023-03-07T03:11:29.244Z,99829.15
2023-03-07T03:12:32.529Z,99829.75
2023-03-07T03:13:37.681Z,99829.42
2023-03-07T03:14:42.613Z,99832.01
2023-03-07T03:15:45.780Z,99823.27
2023-03-07T03:16:49.587Z,99826.87
2023-03-07T03:17:55.109Z,99821.52
2023-03-07T03:18:58.537Z,99820.92
2023-03-07T03:20:01.515Z,99819.85
2023-03-07T03:21:11.469Z,99821.02
2023-03-07T03:22:14.943Z,99821.60
2023-03-07T03:23:20.522Z,99818.48
2023-03-07T03:24:23.501Z,99815.14
2023-03-07T03:25:27.276Z,99818.00
2023-03-07T03:26:30.444Z,99817.34
2023-03-07T03:27:33.519Z,99817.02
2023-03-07T03:28:37.994Z,99815.97
2023-03-07T03:29:41.133Z,99817.42
2023-03-07T03:30:44.126Z,99813.83
2023-03-07T03:31:47.208Z,99816.48
2023-03-07T03:32:50.136Z,99811.17
2023-03-07T03:33:53.455Z,99812.79
2023-03-07T03:34:56.704Z,99814.20
2023-03-07T03:36:01.319Z,99814.48
2023-03-07T03:37:04.607Z,99811.07
2023-03-07T03:38:08.446Z,99811.13
2023-03-07T03:39:11.458Z,99811.08
2023-03-07T03:40:19.738Z,99806.65
2023-03-07T03:41:23.501Z,99803.60
2023-03-07T03:42:26.644Z,99806.66
2023-03-07T03:43:29.699Z,99802.95
2023-03-07T03:44:32.638Z,99802.08
2023-03-07T03:45:35.590Z,99798.60
2023-03-07T03:46:38.510Z,99796.70
2023-03-07T03:47:41.821Z,99796.06
2023-03-07T03:48:45.332Z,99796.05
2023-03-07T03:49:48.499Z,99795.73
2023-03-07T03:50:51.512Z,99794.55
2023-03-07T03:51:54.474Z,99793.74
2023-03-07T03:52:57.715Z,99792.80
2023-03-07T03:54:00.762Z,99791.89
2023-03-07T03:55:05.246Z,99790.47
2023-03-07T03:56:13.704Z,99785.14
2023-03-07T03:57:20.624Z,99786.33
2023-03-07T03:58:23.696Z,99780.27
2023-03-07T03:59:26.752Z,99779.85
2023-03-07T04:00:30.702Z,99783.91
2023-03-07T04:01:33.633Z,99780.09
2023-03-07T04:02:36.784Z,99776.77
2023-03-07T04:03:43.863Z,99773.67
2023-03-07T04:04:46.800Z,99769.41
2023-03-07T04:05:49.621Z,99770.63
2023-03-07T04:06:53.027Z,99770.87
2023-03-07T04:07:56.022Z,99767.23
2023-03-07T04:08:59.547Z,99767.21
2023-03-07T04:10:02.455Z,99764.20
2023-03-07T04:11:06.425Z,99763.13
2023-03-07T04:12:09.364Z,99763.58
2023-03-07T04:13:12.304Z,99763.08
2023-03-07T04:14:15.479Z,99766.23
2023-03-07T04:15:18.668Z,99765.15
2023-03-07T04:16:24.579Z,99764.27
2023-03-07T04:17:27.434Z,99767.35
2023-03-07T04:18:30.533Z,99762.70
2023-03-07T04:19:34.145Z,99762.86
2023-03-07T04:20:37.433Z,99761.47
2023-03-07T04:21:41.035Z,99760.95
2023-03-07T04:22:44.930Z,99760.98
2023-03-07T04:23:50.281Z,99759.91
2023-03-07T04:24:53.384Z,99755.75
2023-03-07T04:25:58.602Z,99756.16
2023-03-07T04:27:02.592Z,99756.14
2023-03-07T04:28:05.654Z,99755.71
2023-03-07T04:29:10.074Z,99752.52
2023-03-07T04:30:17.646Z,99752.95
2023-03-07T04:31:23.834Z,99753.80
2023-03-07T04:32:27.201Z,99751.23
2023-03-07T04:33:30.352Z,99754.40
2023-03-07T04:34:33.251Z,99750.60
2023-03-07T04:35:36.562Z,99747.45
2023-03-07T04:36:39.706Z,99746.73
2023-03-07T04:37:42.588Z,99744.61
2023-03-07T04:38:47.405Z,99744.94
2023-03-07T04:39:50.515Z,99743.27
2023-03-07T04:40:53.716Z,99742.51
2023-03-07T04:41:56.645Z,99737.58
2023-03-07T04:43:00.530Z,99734.58
2023-03-07T04:44:03.555Z,99735.19
2023-03-07T04:45:07.268Z,99733.06
2023-03-07T04:46:12.887Z,99733.15
2023-03-07T04:47:15.834Z,99733.56
2023-03-07T04:48:19.145Z,99733.48
2023-03-07T04:49:21.998Z,99731.97
2023-03-07T04:50:25.275Z,99729.83
2023-03-07T04:51:28.392Z,99726.57
2023-03-07T04:52:31.661Z,99728.74
2023-03-07T04:53:34.900Z,99724.84
2023-03-07T04:54:40.853Z,99724.84
2023-03-07T04:55:44.840Z,99723.27
2023-03-07T04:56:48.009Z,99722.52
2023-03-07T04:57:52.160Z,99722.67
2023-03-07T04:58:55.191Z,99723.05
2023-03-07T04:59:58.096Z,99720.02
2023-03-07T05:01:02.684Z,99720.91
2023-03-07T05:02:12.706Z,99720.11
2023-03-07T05:03:17.036Z,99722.16
2023-03-07T05:04:19.957Z,99718.08
2023-03-07T05:05:22.911Z,99719.11
2023-03-07T05:06:25.960Z,99717.13
2023-03-07T05:07:30.092Z,99711.48
2023-03-07T05:08:33.083Z,99712.98
2023-03-07T05:09:36.318Z,99715.81
2023-03-07T05:10:39.882Z,99713.13
2023-03-07T05:11:42.831Z,99707.88
2023-03-07T05:12:45.930Z,99710.20
2023-03-07T05:13:49.032Z,99707.55
2023-03-07T05:14:54.903Z,99706.87
2023-03-07T05:15:59.288Z,99706.13
2023-03-07T05:17:03.256Z,99705.27
2023-03-07T05:18:07.209Z,99706.34
2023-03-07T05:19:10.734Z,99704.45
2023-03-07T05:20:14.227Z,99702.98
2023-03-07T05:21:17.848Z,99700.41
2023-03-07T05:22:21.094Z,99694.45
2023-03-07T05:23:25.099Z,99695.15
2023-03-07T05:24:29.273Z,99690.54
2023-03-07T05:25:33.135Z,99691.06
2023-03-07T05:26:36.215Z,99690.34
2023-03-07T05:27:39.130Z,99690.30
2023-03-07T05:28:42.234Z,99685.76
2023-03-07T05:29:45.275Z,99685.86
2023-03-07T05:30:48.304Z,99684.35
2023-03-07T05:31:51.296Z,99683.07
2023-03-07T05:32:54.474Z,99685.23
2023-03-07T05:33:57.672Z,99685.08
2023-03-07T05:35:01.021Z,99683.73
2023-03-07T05:36:04.268Z,99681.48
2023-03-07T05:37:08.206Z,99681.04
2023-03-07T05:38:11.480Z,99677.52
2023-03-07T05:39:16.073Z,99682.05
2023-03-07T05:40:19.489Z,99678.20
2023-03-07T05:41:23.779Z,99679.88
2023-03-07T05:42:26.636Z,99678.09
2023-03-07T05:43:29.512Z,99678.05
2023-03-07T05:44:34.239Z,99678.16
2023-03-07T05:45:38.165Z,99678.90
2023-03-07T05:46:41.457Z,99676.32
2023-03-07T05:47:44.934Z,99674.23
2023-03-07T05:48:49.155Z,99672.79
2023-03-07T05:49:53.525Z,99672.39
2023-03-07T05:51:00.245Z,99669.67
2023-03-07T05:52:03.785Z,99666.66
2023-03-07T05:53:06.672Z,99666.61
2023-03-07T05:54:09.889Z,99668.10
2023-03-07T05:55:12.867Z,99665.71
2023-03-07T05:56:15.869Z,99665.31
2023-03-07T05:57:18.782Z,99664.60
2023-03-07T05:58:21.648Z,99666.33
2023-03-07T05:59:25.135Z,99662.27
2023-03-07T06:00:28.641Z,99659.70
2023-03-07T06:01:35.009Z,99658.55
2023-03-07T06:02:38.345Z,99658.33
2023-03-07T06:03:43.152Z,99652.88
2023-03-07T06:04:47.112Z,99654.39
2023-03-07T06:05:50.603Z,99650.12
2023-03-07T06:06:53.546Z,99649.70
2023-03-07T06:07:56.696Z,99649.60
2023-03-07T06:08:59.881Z,99642.08
2023-03-07T06:10:03.489Z,99642.15
2023-03-07T06:11:06.478Z,99640.64
2023-03-07T06:12:11.004Z,99637.27
2023-03-07T06:13:20.043Z,99638.06
2023-03-07T06:14:23.042Z,99639.61
2023-03-07T06:15:26.201Z,99643.86
2023-03-07T06:16:34.250Z,99642.36
2023-03-07T06:17:38.245Z,99640.79
2023-03-07T06:18:42.367Z,99639.04
2023-03-07T06:19:45.345Z,99632.41
2023-03-07T06:20:59.093Z,99635.20
2023-03-07T06:22:03.079Z,99636.89
2023-03-07T06:23:06.936Z,99637.10
2023-03-07T06:24:10.080Z,99634.64
2023-03-07T06:25:15.367Z,99634.70
2023-03-07T06:26:18.468Z,99629.84
2023-03-07T06:27:23.674Z,99630.20
2023-03-07T06:28:27.808Z,99630.45
2023-03-07T06:29:30.871Z,99628.52
2023-03-07T06:30:34.182Z,99630.95
2023-03-07T06:31:37.184Z,99626.50
2023-03-07T06:32:40.487Z,99624.55
2023-03-07T06:33:44.310Z,99631.59
2023-03-07T06:34:50.395Z,99627.79
2023-03-07T06:35:53.397Z,99623.58
2023-03-07T06:36:56.378Z,99626.64
2023-03-07T06:38:00.587Z,99621.52
2023-03-07T06:39:04.134Z,99617.55
2023-03-07T06:40:09.432Z,99619.52
2023-03-07T06:41:12.566Z,99613.92
2023-03-07T06:42:16.278Z,99612.56
2023-03-07T06:43:19.221Z,99610.77
2023-03-07T06:44:22.087Z,99606.52
2023-03-07T06:45:26.020Z,99602.11
2023-03-07T06:46:28.937Z,99603.38
2023-03-07T06:47:32.218Z,99598.60
2023-03-07T06:48:35.621Z,99598.14
2023-03-07T06:49:39.514Z,99591.88
2023-03-07T06:50:42.555Z,99593.00
2023-03-07T06:51:45.510Z,99591.54
2023-03-07T06:52:49.976Z,99597.55
2023-03-07T06:53:53.181Z,99588.49
2023-03-07T06:54:56.020Z,99584.61
2023-03-07T06:55:59.459Z,99583.00
2023-03-07T06:57:02.930Z,99584.11
2023-03-07T06:58:05.789Z,99583.69
2023-03-07T06:59:08.648Z,99582.42
2023-03-07T07:00:13.028Z,99582.23
2023-03-07T07:01:18.472Z,99579.65
2023-03-07T07:02:22.562Z,99574.67
2023-03-07T07:03:26.022Z,99575.00
2023-03-07T07:04:30.084Z,99579.19
2023-03-07T07:05:32.998Z,99575.46
2023-03-07T07:06:35.848Z,99574.58
2023-03-07T07:07:38.820Z,99574.02
2023-03-07T07:08:41.785Z,99574.30
2023-03-07T07:09:45.076Z,99571.41
2023-03-07T07:10:48.013Z,99570.33
2023-03-07T07:11:51.358Z,99566.41
2023-03-07T07:12:56.730Z,99561.57
2023-03-07T07:13:59.857Z,99561.41
2023-03-07T07:15:05.610Z,99557.83
2023-03-07T07:16:09.615Z,99555.01
2023-03-07T07:17:15.154Z,99551.67
2023-03-07T07:18:18.762Z,99554.86
2023-03-07T07:19:22.224Z,99547.04
2023-03-07T07:20:25.210Z,99543.57
2023-03-07T07:21:28.481Z,99544.50
2023-03-07T07:22:32.432Z,99542.27
2023-03-07T07:23:35.548Z,99542.58
2023-03-07T07:24:39.971Z,99540.71
2023-03-07T07:25:43.262Z,99540.77
2023-03-07T07:26:46.078Z,99535.61
2023-03-07T07:27:48.942Z,99530.02
2023-03-07T07:28:52.432Z,99526.73
2023-03-07T07:29:55.517Z,99522.18
2023-03-07T07:30:58.476Z,99519.12
2023-03-07T07:32:02.077Z,99516.46
2023-03-07T07:33:05.277Z,99511.09
2023-03-07T07:34:08.288Z,99510.73
2023-03-07T07:35:11.168Z,99507.89
2023-03-07T07:36:14.649Z,99506.77
2023-03-07T07:37:17.554Z,99506.23
2023-03-07T07:38:20.457Z,99502.42
2023-03-07T07:39:24.531Z,99495.84
2023-03-07T07:40:28.476Z,99495.09
2023-03-07T07:41:33.424Z,99491.11
2023-03-07T07:42:36.491Z,99493.47
2023-03-07T07:43:50.594Z,99493.98
2023-03-07T07:44:57.979Z,99489.46
2023-03-07T07:46:06.208Z,99483.79
2023-03-07T07:47:09.740Z,99485.09
2023-03-07T07:48:13.127Z,99485.02
2023-03-07T07:49:17.723Z,99487.02
2023-03-07T07:50:22.655Z,99480.95
2023-03-07T07:51:25.613Z,99485.32
2023-03-07T07:52:28.490Z,99478.97
2023-03-07T07:53:31.893Z,99475.09
2023-03-07T07:54:34.770Z,99471.31
2023-03-07T07:55:38.302Z,99469.30
2023-03-07T07:56:41.326Z,99468.06
2023-03-07T07:57:44.555Z,99465.42
2023-03-07T07:58:48.103Z,99457.33
2023-03-07T07:59:51.396Z,99455.05
2023-03-07T08:00:54.313Z,99451.97
2023-03-07T08:01:57.255Z,99454.88
2023-03-07T08:03:00.640Z,99459.65
2023-03-07T08:04:03.945Z,99448.38
2023-03-07T08:05:10.165Z,99452.77
2023-03-07T08:06:13.764Z,99449.29
2023-03-07T08:07:16.642Z,99441.24
2023-03-07T08:08:20.040Z,99437.33
2023-03-07T08:09:23.100Z,99438.86
2023-03-07T08:10:26.031Z,99431.20
2023-03-07T08:11:28.964Z,99434.00
2023-03-07T08:12:31.802Z,99428.91
2023-03-07T08:13:34.906Z,99429.88
2023-03-07T08:14:38.535Z,99431.40
2023-03-07T08:15:42.380Z,99430.76
2023-03-07T08:16:45.256Z,99431.02
2023-03-07T08:17:50.449Z,99427.73
2023-03-07T08:18:58.701Z,99423.23
2023-03-07T08:20:08.201Z,99419.73
2023-03-07T08:21:11.042Z,99419.09
2023-03-07T08:22:14.059Z,99423.08
2023-03-07T08:23:16.986Z,99422.66
2023-03-07T08:24:24.963Z,99420.36
2023-03-07T08:25:32.556Z,99419.55
2023-03-07T08:26:35.436Z,99415.19
2023-03-07T08:27:38.213Z,99415.60
2023-03-07T08:28:41.978Z,99418.38
2023-03-07T08:29:49.442Z,99417.61
2023-03-07T08:30:52.535Z,99419.99
2023-03-07T08:31:55.397Z,99408.67
2023-03-07T08:32:58.781Z,99407.33
2023-03-07T08:34:01.710Z,99409.08
2023-03-07T08:35:05.270Z,99413.66
2023-03-07T08:36:08.579Z,99410.13
2023-03-07T08:37:11.468Z,99415.16
2023-03-07T08:38:14.395Z,99406.31
2023-03-07T08:39:17.165Z,99406.77
2023-03-07T08:40:20.185Z,99400.90
2023-03-07T08:41:23.478Z,99400.05
2023-03-07T08:42:26.495Z,99403.67
2023-03-07T08:43:30.285Z,99395.94
2023-03-07T08:44:33.162Z,99390.80
2023-03-07T08:45:40.040Z,99385.88
2023-03-07T08:46:43.287Z,99385.23
2023-03-07T08:47:46.154Z,99378.97
2023-03-07T08:48:49.270Z,99374.84
2023-03-07T08:49:52.388Z,99372.35
2023-03-07T08:50:55.832Z,99368.85
2023-03-07T08:51:58.926Z,99364.86
2023-03-07T08:53:01.807Z,99357.07
2023-03-07T08:54:04.953Z,99355.30
2023-03-07T08:55:08.116Z,99352.86
2023-03-07T08:56:15.952Z,99348.93
2023-03-07T08:57:19.203Z,99349.08
2023-03-07T08:58:22.016Z,99348.84
2023-03-07T08:59:24.841Z,99346.51
2023-03-07T09:00:27.649Z,99341.41
2023-03-07T09:01:30.696Z,99338.94
2023-03-07T09:02:33.724Z,99337.34
2023-03-07T09:03:37.067Z,99334.60
2023-03-07T09:04:40.113Z,99324.83
2023-03-07T09:05:43.130Z,99327.60
2023-03-07T09:06:46.331Z,99325.13
2023-03-07T09:07:49.516Z,99325.73
2023-03-07T09:08:52.459Z,99311.91
2023-03-07T09:09:55.255Z,99315.27
2023-03-07T09:11:03.629Z,99311.71
2023-03-07T09:12:07.038Z,99300.05
2023-03-07T09:13:10.776Z,99298.98
2023-03-07T09:14:13.855Z,99300.09
2023-03-07T09:15:17.892Z,99300.21
2023-03-07T09:16:21.841Z,99303.15
2023-03-07T09:17:25.198Z,99310.23
2023-03-07T09:18:30.802Z,99306.71
2023-03-07T09:19:35.354Z,99309.31
2023-03-07T09:20:38.883Z,99305.30
2023-03-07T09:21:41.731Z,99301.63
2023-03-07T09:22:45.696Z,99292.16
2023-03-07T09:23:49.074Z,99286.67
2023-03-07T09:24:51.924Z,99288.77
2023-03-07T09:25:55.323Z,99283.96
2023-03-07T09:26:58.139Z,99279.27
2023-03-07T09:28:01.356Z,99284.09
2023-03-07T09:29:04.664Z,99272.25
2023-03-07T09:30:08.334Z,99274.95
2023-03-07T09:31:13.828Z,99273.75
2023-03-07T09:32:16.748Z,99268.33
2023-03-07T09:33:19.868Z,99261.86
2023-03-07T09:34:22.769Z,99266.98
2023-03-07T09:35:25.916Z,99258.07
2023-03-07T09:36:28.764Z,99262.48
2023-03-07T09:37:31.580Z,99252.40
2023-03-07T09:38:34.609Z,99255.71
2023-03-07T09:39:37.702Z,99249.95
2023-03-07T09:40:40.971Z,99245.09
2023-03-07T09:41:58.778Z,99245.27
2023-03-07T09:43:15.816Z,99242.04
2023-03-07T09:44:31.079Z,99236.56
2023-03-07T09:46:06.691Z,99234.64
2023-03-07T09:47:34.422Z,99225.51
2023-03-07T09:48:50.978Z,99232.70
2023-03-07T09:49:55.164Z,99227.05
2023-03-07T09:51:12.418Z,99224.04
2023-03-07T09:52:19.585Z,99220.58
2023-03-07T09:53:36.768Z,99213.69
2023-03-07T09:54:50.189Z,99210.56
2023-03-07T09:56:05.524Z,99211.08
2023-03-07T09:57:17.889Z,99208.45
2023-03-07T09:58:24.109Z,99204.98
2023-03-07T09:59:38.265Z,99201.04
2023-03-07T10:00:46.169Z,99202.54
2023-03-07T10:01:52.774Z,99196.13
2023-03-07T10:03:23.919Z,99189.15
2023-03-07T10:04:38.427Z,99189.75
2023-03-07T10:05:53.454Z,99190.04
2023-03-07T10:06:59.243Z,99191.15
2023-03-07T10:08:02.842Z,99193.73
2023-03-07T10:09:14.851Z,99196.13
2023-03-07T10:10:22.974Z,99193.73
2023-03-07T10:11:52.707Z,99195.84
2023-03-07T10:13:28.009Z,99198.06
2023-03-07T10:14:36.547Z,99185.67
2023-03-07T10:15:51.129Z,99185.07
2023-03-07T10:17:24.699Z,99183.80
2023-03-07T10:18:42.707Z,99189.58
2023-03-07T10:19:56.469Z,99172.66
2023-03-07T10:21:37.303Z,99176.10
2023-03-07T10:22:55.641Z,99167.29
2023-03-07T10:24:27.745Z,99162.61
2023-03-07T10:25:40.850Z,99162.14
2023-03-07T10:26:43.647Z,99163.09
2023-03-07T10:27:48.154Z,99161.48
2023-03-07T10:28:51.302Z,99158.30
2023-03-07T10:29:56.016Z,99154.95
2023-03-07T10:31:10.073Z,99150.68
2023-03-07T10:32:21.303Z,99152.10
2023-03-07T10:33:25.313Z,99147.03
2023-03-07T10:34:32.419Z,99148.40
2023-03-07T10:35:43.893Z,99142.29
2023-03-07T10:36:57.453Z,99139.05
2023-03-07T10:38:24.876Z,99134.74
2023-03-07T10:39:38.211Z,99127.66
2023-03-07T10:40:54.100Z,99131.09
2023-03-07T10:41:57.448Z,99130.13
2023-03-07T10:43:00.828Z,99123.00
2023-03-07T10:44:03.746Z,99119.40
2023-03-07T10:45:07.479Z,99109.04
2023-03-07T10:46:27.078Z,99106.03
2023-03-07T10:47:30.610Z,99105.79
2023-03-07T10:48:37.490Z,99100.13
2023-03-07T10:49:45.672Z,99095.41
2023-03-07T10:51:24.084Z,99091.38
2023-03-07T10:52:40.202Z,99100.97
2023-03-07T10:53:43.179Z,99092.83
2023-03-07T10:54:46.012Z,99093.63
2023-03-07T10:55:48.856Z,99091.13
2023-03-07T10:57:02.886Z,99090.96
2023-03-07T10:58:20.798Z,99080.71
2023-03-07T10:59:25.922Z,99080.27
2023-03-07T11:00:29.325Z,99071.36
2023-03-07T11:01:33.861Z,99071.02
2023-03-07T11:02:44.716Z,99074.20
2023-03-07T11:03:58.228Z,99071.50
2023-03-07T11:05:03.788Z,99060.48
2023-03-07T11:06:07.174Z,99055.14
2023-03-07T11:07:34.581Z,99059.61
2023-03-07T11:08:37.672Z,99054.77
2023-03-07T11:09:47.904Z,99052.53
2023-03-07T11:10:50.877Z,99061.70
2023-03-07T11:12:05.980Z,99056.77
2023-03-07T11:13:17.970Z,99043.45
2023-03-07T11:14:23.899Z,99050.46
2023-03-07T11:15:27.608Z,99042.54
2023-03-07T11:16:30.587Z,99034.45
2023-03-07T11:17:44.210Z,99041.38
2023-03-07T11:18:47.586Z,99030.97
2023-03-07T11:19:54.315Z,99032.86
2023-03-07T11:20:59.189Z,99041.47
2023-03-07T11:22:06.152Z,99032.48
2023-03-07T11:23:31.527Z,99023.14
2023-03-07T11:24:39.955Z,99027.13
2023-03-07T11:25:43.943Z,99023.77
2023-03-07T11:26:47.158Z,99024.17
2023-03-07T11:27:53.677Z,99021.77
2023-03-07T11:29:12.022Z,99019.05
2023-03-07T11:30:22.841Z,99015.52
2023-03-07T11:31:38.322Z,99013.98
2023-03-07T11:32:51.287Z,99018.11
2023-03-07T11:34:36.852Z,99018.40
2023-03-07T11:35:52.868Z,99010.02
2023-03-07T11:37:03.448Z,99011.71
2023-03-07T11:38:26.432Z,99012.73
2023-03-07T11:39:42.002Z,99004.96
2023-03-07T11:41:12.268Z,99001.37
2023-03-07T11:42:24.924Z,99014.98
2023-03-07T11:43:59.964Z,99007.22
2023-03-07T11:45:33.452Z,98992.57
2023-03-07T11:47:13.440Z,98995.89
2023-03-07T11:48:22.919Z,98992.99
2023-03-07T11:49:53.225Z,99000.09
2023-03-07T11:51:00.228Z,99000.17
2023-03-07T11:52:12.310Z,98988.03
2023-03-07T11:53:15.274Z,98993.36
2023-03-07T11:54:40.040Z,98991.37
2023-03-07T11:55:53.998Z,98991.19
2023-03-07T11:57:03.702Z,98988.95
2023-03-07T11:58:20.171Z,98984.64
2023-03-07T11:59:48.802Z,98987.83
2023-03-07T12:01:04.364Z,98982.27
2023-03-07T12:02:27.337Z,98983.64
2023-03-07T12:03:55.888Z,98981.22
2023-03-07T12:05:20.604Z,98976.64
2023-03-07T12:06:52.006Z,98979.02
2023-03-07T12:08:19.366Z,98979.73
2023-03-07T12:09:54.663Z,98978.03
2023-03-07T12:11:18.027Z,98981.54
2023-03-07T12:12:35.142Z,98981.39
2023-03-07T12:14:00.091Z,98978.93
2023-03-07T12:15:25.802Z,98983.54
2023-03-07T12:17:01.943Z,98977.02
2023-03-07T12:18:26.527Z,98980.65
2023-03-07T12:19:42.711Z,98980.30
2023-03-07T12:21:07.693Z,98977.54
2023-03-07T12:22:27.312Z,98981.78
2023-03-07T12:23:39.192Z,98981.46
2023-03-07T12:24:56.358Z,98977.98
2023-03-07T12:26:03.750Z,98973.18
2023-03-07T12:27:30.179Z,98964.65
2023-03-07T12:28:42.980Z,98966.41
2023-03-07T12:29:57.537Z,98970.04
2023-03-07T12:31:25.916Z,98966.10
2023-03-07T12:32:32.678Z,98965.66
2023-03-07T12:33:53.985Z,98972.04
2023-03-07T12:35:40.668Z,98961.45
2023-03-07T12:36:52.532Z,98961.92
2023-03-07T12:38:08.905Z,98958.36
2023-03-07T12:39:26.034Z,98953.93
2023-03-07T12:40:45.505Z,98957.42
2023-03-07T12:42:03.178Z,98958.21
2023-03-07T12:43:11.224Z,98964.98
2023-03-07T12:44:29.256Z,98957.67
2023-03-07T12:45:54.955Z,98955.97
2023-03-07T12:47:11.483Z,98954.09
2023-03-07T12:48:29.392Z,98954.55
2023-03-07T12:49:49.670Z,98953.66
2023-03-07T12:51:04.902Z,98950.11
2023-03-07T12:52:20.595Z,98954.38
2023-03-07T12:53:46.021Z,98945.11
2023-03-07T12:55:21.716Z,98943.80
2023-03-07T12:56:54.370Z,98944.04
2023-03-07T12:58:15.436Z,98938.67
2023-03-07T12:59:21.906Z,98937.52
2023-03-07T13:00:25.241Z,98929.50
2023-03-07T13:01:32.778Z,98930.54
2023-03-07T13:02:44.396Z,98929.14
2023-03-07T13:04:25.393Z,98930.94
2023-03-07T13:05:28.727Z,98928.15